MSC Geneva — CQFQ — position and weather

sailwx.info

Track history (hours):
 
Tides and Currents Weather Stations Pressure Air Temp Water Temp Dewpoint Dewpoint Depression Visibility Wind Speed Wind Dir Waves Ship Positions

MSC Geneva

Last reported at 2017-Dec-11 16:58 UTC. Time now 2017-Dec-13 20:25 UTC.
Position N 51°53' E 001°40'.

Length 282 m; draft 9.9 m.

Type: Ship. MMSI: 255805618.

Date/timePositionNaut miles runAvg speedWind from/ knotsBaromVisibWave heightAir tempDewpointWater temp
2017-Dec-11 16:58N 51°53' E 001°40'0 0.1
2017-Dec-11 16:30N 51°53' E 001°40'0 0.1
2017-Dec-11 16:00N 51°53' E 001°40'0 0.0
2017-Dec-11 15:30N 51°53' E 001°40'0 0.0
2017-Dec-11 15:00N 51°53' E 001°40'0 0.1
2017-Dec-11 14:29N 51°53' E 001°40'0 0.4
2017-Dec-11 14:00N 51°53' E 001°40'0 0.6
2017-Dec-11 13:28N 51°53' E 001°39'0 0.2
2017-Dec-11 13:00N 51°53' E 001°39'0 0.2
2017-Dec-11 12:30N 51°54' E 001°39'0 0.2
2017-Dec-11 12:00N 51°53' E 001°39'0 0.2
2017-Dec-11 11:30N 51°54' E 001°39'0 0.2
2017-Dec-11 11:00N 51°54' E 001°39'0 0.2
2017-Dec-11 10:29N 51°54' E 001°39'0 0.1
2017-Dec-11 09:59N 51°53' E 001°39'0 0.1
2017-Dec-11 09:29N 51°53' E 001°39'0 0.0
2017-Dec-11 08:59N 51°54' E 001°39'0 0.0
2017-Dec-11 08:29N 51°54' E 001°39'0 0.0
2017-Dec-11 07:58N 51°54' E 001°39'0 0.1
2017-Dec-11 07:28N 51°54' E 001°39'0 0.1
2017-Dec-11 06:58N 51°54' E 001°39'0 0.1
2017-Dec-11 06:28N 51°54' E 001°39'0 0.1
2017-Dec-11 06:00N 51°54' E 001°39'0 0.1
2017-Dec-11 05:30N 51°54' E 001°39'0 0.6
2017-Dec-11 05:00N 51°53' E 001°39'3 6.4
2017-Dec-11 04:30N 51°51' E 001°43'5 9.9
2017-Dec-11 04:00N 51°47' E 001°49'612.2
2017-Dec-11 03:31N 51°41' E 001°49'612.1
2017-Dec-11 03:01N 51°35' E 001°49'612.0
2017-Dec-11 02:30N 51°30' E 001°53'713.7
2017-Dec-11 02:01N 51°25' E 002°01'611.5
2017-Dec-11 01:30N 51°20' E 001°58'612.9
2017-Dec-11 01:00N 51°15' E 001°51'612.8
2017-Dec-11 00:30N 51°10' E 001°44'612.7
2017-Dec-11 00:00N 51°05' E 001°38'612.2
2017-Dec-10 23:30N 51°00' E 001°32'612.5
2017-Dec-10 23:00N 50°55' E 001°26'612.6
2017-Dec-10 22:30N 50°49' E 001°24'912.6
2017-Dec-10 21:48N 50°41' E 001°19'412.8
2017-Dec-10 21:29N 50°38' E 001°14'714.0
2017-Dec-10 21:01N 50°34' E 001°06'713.9
2017-Dec-10 20:30N 50°30' E 000°57'714.0
2017-Dec-10 20:00N 50°27' E 000°46'714.0
2017-Dec-10 19:29N 50°24' E 000°36'714.1
2017-Dec-10 19:00N 50°23' E 000°26'714.1
2017-Dec-10 18:30N 50°21' E 000°15'714.3
2017-Dec-10 18:00N 50°20' E 000°04'714.6
2017-Dec-10 17:30N 50°18' W 000°07'714.6
2017-Dec-10 17:00N 50°17' W 000°19'714.7
2017-Dec-10 16:30N 50°15' W 000°30'815.1
2017-Dec-10 16:00N 50°13' W 000°41'1015.9
2017-Dec-10 15:22N 50°10' W 000°56'5417.4
2017-Dec-10 12:15N 49°56' W 002°18'517.5
2017-Dec-10 11:57N 49°54' W 002°26'917.1
2017-Dec-10 11:27N 49°51' W 002°38'716.3
2017-Dec-10 11:00N 49°48' W 002°49'816.0
2017-Dec-10 10:30N 49°45' W 002°60'816.0
2017-Dec-10 10:00N 49°40' W 003°10'1616.4
2017-Dec-10 09:00N 49°30' W 003°30'6715.4 270 / 34985.0 1.1 13.013.013.0
2017-Dec-10 04:38N 48°59' W 005°02'217.5
2017-Dec-10 04:30N 48°58' W 005°05'917.5
2017-Dec-10 04:00N 48°54' W 005°16'917.1
2017-Dec-10 03:30N 48°50' W 005°27'917.2
2017-Dec-10 03:00N 48°45' W 005°39'816.8
2017-Dec-10 02:30N 48°38' W 005°45'916.9
2017-Dec-10 01:58N 48°30' W 005°51'1016.6
2017-Dec-10 01:23N 48°21' W 005°57'4516.9
2017-Dec-09 22:42N 47°41' W 006°28'3721.8
2017-Dec-09 21:00N 47°06' W 006°48'34316.3 270 / 251006.0 2.2 15.011.613.0
2017-Dec-09 00:00N 41°48' W 009°48'14816.4 290 / 161028.0 5.4 20.015.315.0
2017-Dec-08 14:58N 39°20' W 009°53'816.9
2017-Dec-08 14:30N 39°13' W 009°52'816.5
2017-Dec-08 14:00N 39°04' W 009°52'816.6
2017-Dec-08 13:30N 38°56' W 009°53'816.5
2017-Dec-08 13:00N 38°48' W 009°52'816.5
2017-Dec-08 12:31N 38°40' W 009°51'816.1
2017-Dec-08 12:00N 38°32' W 009°48'816.7
2017-Dec-08 11:30N 38°24' W 009°45'816.2
2017-Dec-08 11:00N 38°16' W 009°43'816.4
2017-Dec-08 10:30N 38°08' W 009°41'816.5
2017-Dec-08 10:00N 37°60' W 009°39'816.3
2017-Dec-08 09:30N 37°52' W 009°36'816.2
2017-Dec-08 09:00N 37°44' W 009°33'816.0
2017-Dec-08 08:30N 37°36' W 009°32'816.5
2017-Dec-08 08:00N 37°28' W 009°29'1019.0
2017-Dec-08 07:27N 37°18' W 009°26'818.6
2017-Dec-08 07:00N 37°10' W 009°24'917.1
2017-Dec-08 06:29N 37°01' W 009°21'817.0
2017-Dec-08 06:00N 36°53' W 009°19'917.1
2017-Dec-08 05:29N 36°47' W 009°11'1816.9
2017-Dec-08 04:25N 36°41' W 008°50'817.3
2017-Dec-08 03:59N 36°39' W 008°41'817.1
2017-Dec-08 03:30N 36°36' W 008°31'917.2
2017-Dec-08 03:00N 36°33' W 008°21'917.2
2017-Dec-08 02:29N 36°30' W 008°11'816.8
2017-Dec-08 01:59N 36°27' W 008°01'917.0
2017-Dec-08 01:26N 36°25' W 007°50'2919.9
2017-Dec-08 00:00N 36°12' W 007°18'30716.0 360 / 141030.010.8 17.010.018.0
2017-Dec-07 04:50N 37°14' W 001°03'1017.7
2017-Dec-07 04:15N 37°20' W 000°52'417.7
2017-Dec-07 04:00N 37°23' W 000°48'917.7
2017-Dec-07 03:30N 37°29' W 000°40'917.1
2017-Dec-07 03:00N 37°36' W 000°33'917.1
2017-Dec-07 02:30N 37°43' W 000°27'917.2
2017-Dec-07 02:00N 37°50' W 000°21'917.0
2017-Dec-07 01:30N 37°57' W 000°16'917.0
2017-Dec-07 01:00N 38°04' W 000°09'342 7.0
2017-Dec-05 00:00N 38°18' E 007°06'22815.2 320 / 261032.0 5.4 16.0 6.616.0
2017-Dec-04 09:00N 37°12' E 011°42'10215.9 290 / 211024.010.8 14.511.016.0
2017-Dec-04 02:33N 36°34' E 013°41'315.1
2017-Dec-04 02:22N 36°33' E 013°44'615.5
2017-Dec-04 01:59N 36°31' E 013°51'715.2
2017-Dec-04 01:30N 36°28' E 013°59'815.4
2017-Dec-04 01:00N 36°24' E 014°07'815.4
2017-Dec-04 00:30N 36°21' E 014°16'715.1
2017-Dec-04 00:00N 36°18' E 014°25'815.2
2017-Dec-03 23:30N 36°15' E 014°33'815.4
2017-Dec-03 23:00N 36°12' E 014°42'51815.2
2017-Dec-02 12:52N 34°02' E 024°55'3315.6
2017-Dec-02 10:46N 33°53' E 025°33'24215.3
2017-Dec-01 19:00N 32°48' E 030°12'   050 / 101021.0 5.4 19.014.220.0
Track history (hours):
 
Tides and Currents Weather Stations Pressure Air Temp Water Temp Dewpoint Dewpoint Depression Visibility Wind Speed Wind Dir Waves Ship Positions

MSC Geneva

Last reported at 2017-Dec-11 16:58 UTC. Time now 2017-Dec-13 20:25 UTC.
Position N 51°53' E 001°40'.

Length 282 m; draft 9.9 m.

Type: Ship. MMSI: 255805618.

Date/timePositionNaut miles runAvg speedWind from/ knotsBaromVisibWave heightAir tempDewpointWater temp
2017-Dec-11 16:58N 51°53' E 001°40'0 0.1
2017-Dec-11 16:30N 51°53' E 001°40'0 0.1
2017-Dec-11 16:00N 51°53' E 001°40'0 0.0
2017-Dec-11 15:30N 51°53' E 001°40'0 0.0
2017-Dec-11 15:00N 51°53' E 001°40'0 0.1
2017-Dec-11 14:29N 51°53' E 001°40'0 0.4
2017-Dec-11 14:00N 51°53' E 001°40'0 0.6
2017-Dec-11 13:28N 51°53' E 001°39'0 0.2
2017-Dec-11 13:00N 51°53' E 001°39'0 0.2
2017-Dec-11 12:30N 51°54' E 001°39'0 0.2
2017-Dec-11 12:00N 51°53' E 001°39'0 0.2
2017-Dec-11 11:30N 51°54' E 001°39'0 0.2
2017-Dec-11 11:00N 51°54' E 001°39'0 0.2
2017-Dec-11 10:29N 51°54' E 001°39'0 0.1
2017-Dec-11 09:59N 51°53' E 001°39'0 0.1
2017-Dec-11 09:29N 51°53' E 001°39'0 0.0
2017-Dec-11 08:59N 51°54' E 001°39'0 0.0
2017-Dec-11 08:29N 51°54' E 001°39'0 0.0
2017-Dec-11 07:58N 51°54' E 001°39'0 0.1
2017-Dec-11 07:28N 51°54' E 001°39'0 0.1
2017-Dec-11 06:58N 51°54' E 001°39'0 0.1
2017-Dec-11 06:28N 51°54' E 001°39'0 0.1
2017-Dec-11 06:00N 51°54' E 001°39'0 0.1
2017-Dec-11 05:30N 51°54' E 001°39'0 0.6
2017-Dec-11 05:00N 51°53' E 001°39'3 6.4
2017-Dec-11 04:30N 51°51' E 001°43'5 9.9
2017-Dec-11 04:00N 51°47' E 001°49'612.2
2017-Dec-11 03:31N 51°41' E 001°49'612.1
2017-Dec-11 03:01N 51°35' E 001°49'612.0
2017-Dec-11 02:30N 51°30' E 001°53'713.7
2017-Dec-11 02:01N 51°25' E 002°01'611.5
2017-Dec-11 01:30N 51°20' E 001°58'612.9
2017-Dec-11 01:00N 51°15' E 001°51'612.8
2017-Dec-11 00:30N 51°10' E 001°44'612.7
2017-Dec-11 00:00N 51°05' E 001°38'612.2
2017-Dec-10 23:30N 51°00' E 001°32'612.5
2017-Dec-10 23:00N 50°55' E 001°26'612.6
2017-Dec-10 22:30N 50°49' E 001°24'912.6
2017-Dec-10 21:48N 50°41' E 001°19'412.8
2017-Dec-10 21:29N 50°38' E 001°14'714.0
2017-Dec-10 21:01N 50°34' E 001°06'713.9
2017-Dec-10 20:30N 50°30' E 000°57'714.0
2017-Dec-10 20:00N 50°27' E 000°46'714.0
2017-Dec-10 19:29N 50°24' E 000°36'714.1
2017-Dec-10 19:00N 50°23' E 000°26'714.1
2017-Dec-10 18:30N 50°21' E 000°15'714.3
2017-Dec-10 18:00N 50°20' E 000°04'714.6
2017-Dec-10 17:30N 50°18' W 000°07'714.6
2017-Dec-10 17:00N 50°17' W 000°19'714.7
2017-Dec-10 16:30N 50°15' W 000°30'815.1
2017-Dec-10 16:00N 50°13' W 000°41'1015.9
2017-Dec-10 15:22N 50°10' W 000°56'5417.4
2017-Dec-10 12:15N 49°56' W 002°18'517.5
2017-Dec-10 11:57N 49°54' W 002°26'917.1
2017-Dec-10 11:27N 49°51' W 002°38'716.3
2017-Dec-10 11:00N 49°48' W 002°49'816.0
2017-Dec-10 10:30N 49°45' W 002°60'816.0
2017-Dec-10 10:00N 49°40' W 003°10'1616.4
2017-Dec-10 09:00N 49°30' W 003°30'6715.4 270 / 34985.0 1.1 13.013.013.0
2017-Dec-10 04:38N 48°59' W 005°02'217.5
2017-Dec-10 04:30N 48°58' W 005°05'917.5
2017-Dec-10 04:00N 48°54' W 005°16'917.1
2017-Dec-10 03:30N 48°50' W 005°27'917.2
2017-Dec-10 03:00N 48°45' W 005°39'816.8
2017-Dec-10 02:30N 48°38' W 005°45'916.9
2017-Dec-10 01:58N 48°30' W 005°51'1016.6
2017-Dec-10 01:23N 48°21' W 005°57'4516.9
2017-Dec-09 22:42N 47°41' W 006°28'3721.8
2017-Dec-09 21:00N 47°06' W 006°48'34316.3 270 / 251006.0 2.2 15.011.613.0
2017-Dec-09 00:00N 41°48' W 009°48'14816.4 290 / 161028.0 5.4 20.015.315.0
2017-Dec-08 14:58N 39°20' W 009°53'816.9
2017-Dec-08 14:30N 39°13' W 009°52'816.5
2017-Dec-08 14:00N 39°04' W 009°52'816.6
2017-Dec-08 13:30N 38°56' W 009°53'816.5
2017-Dec-08 13:00N 38°48' W 009°52'816.5
2017-Dec-08 12:31N 38°40' W 009°51'816.1
2017-Dec-08 12:00N 38°32' W 009°48'816.7
2017-Dec-08 11:30N 38°24' W 009°45'816.2
2017-Dec-08 11:00N 38°16' W 009°43'816.4
2017-Dec-08 10:30N 38°08' W 009°41'816.5
2017-Dec-08 10:00N 37°60' W 009°39'816.3
2017-Dec-08 09:30N 37°52' W 009°36'816.2
2017-Dec-08 09:00N 37°44' W 009°33'816.0
2017-Dec-08 08:30N 37°36' W 009°32'816.5
2017-Dec-08 08:00N 37°28' W 009°29'1019.0
2017-Dec-08 07:27N 37°18' W 009°26'818.6
2017-Dec-08 07:00N 37°10' W 009°24'917.1
2017-Dec-08 06:29N 37°01' W 009°21'817.0
2017-Dec-08 06:00N 36°53' W 009°19'917.1
2017-Dec-08 05:29N 36°47' W 009°11'1816.9
2017-Dec-08 04:25N 36°41' W 008°50'817.3
2017-Dec-08 03:59N 36°39' W 008°41'817.1
2017-Dec-08 03:30N 36°36' W 008°31'917.2
2017-Dec-08 03:00N 36°33' W 008°21'917.2
2017-Dec-08 02:29N 36°30' W 008°11'816.8
2017-Dec-08 01:59N 36°27' W 008°01'917.0
2017-Dec-08 01:26N 36°25' W 007°50'2919.9
2017-Dec-08 00:00N 36°12' W 007°18'30716.0 360 / 141030.010.8 17.010.018.0
2017-Dec-07 04:50N 37°14' W 001°03'1017.7
2017-Dec-07 04:15N 37°20' W 000°52'417.7
2017-Dec-07 04:00N 37°23' W 000°48'917.7
2017-Dec-07 03:30N 37°29' W 000°40'917.1
2017-Dec-07 03:00N 37°36' W 000°33'917.1
2017-Dec-07 02:30N 37°43' W 000°27'917.2
2017-Dec-07 02:00N 37°50' W 000°21'917.0
2017-Dec-07 01:30N 37°57' W 000°16'917.0
2017-Dec-07 01:00N 38°04' W 000°09'342 7.0
2017-Dec-05 00:00N 38°18' E 007°06'22815.2 320 / 261032.0 5.4 16.0 6.616.0
2017-Dec-04 09:00N 37°12' E 011°42'10215.9 290 / 211024.010.8 14.511.016.0
2017-Dec-04 02:33N 36°34' E 013°41'315.1
2017-Dec-04 02:22N 36°33' E 013°44'615.5
2017-Dec-04 01:59N 36°31' E 013°51'715.2
2017-Dec-04 01:30N 36°28' E 013°59'815.4
2017-Dec-04 01:00N 36°24' E 014°07'815.4
2017-Dec-04 00:30N 36°21' E 014°16'715.1
2017-Dec-04 00:00N 36°18' E 014°25'815.2
2017-Dec-03 23:30N 36°15' E 014°33'815.4
2017-Dec-03 23:00N 36°12' E 014°42'51815.2
2017-Dec-02 12:52N 34°02' E 024°55'3315.6
2017-Dec-02 10:46N 33°53' E 025°33'24215.3
2017-Dec-01 19:00N 32°48' E 030°12'   050 / 101021.0 5.4 19.014.220.0

Dump ship's entire track history